Time;durP1;ratioP1;P1;durP2;ratioP2;P2;SDS_P1;SDS_P2;PMS_P1;PMS_P2;Temp;Humidity;BMP_temperature;BMP_pressure;BME280_temperature;BME280_humidity;BME280_pressure;Samples;Min_cycle;Max_cycle;Signal;HPM_P1;HPM_P2
2023/06/16 00:02:12;;;;;;;4.65;3.70;;;17.90;99.90;;;;;;5055441;28;20205;-82
2023/06/16 00:04:40;;;;;;;4.57;3.40;;;17.80;99.90;;;;;;5055885;28;20221;-85
2023/06/16 00:07:09;;;;;;;4.93;3.85;;;17.80;99.90;;;;;;5055571;28;20314;-85
2023/06/16 00:09:36;;;;;;;5.15;3.90;;;17.80;99.90;;;;;;5055283;28;20287;-84
2023/06/16 00:12:06;;;;;;;5.07;4.35;;;17.80;99.90;;;;;;5055194;28;20199;-85
2023/06/16 00:14:33;;;;;;;4.00;3.60;;;17.80;99.90;;;;;;5055624;28;20302;-85
2023/06/16 00:17:00;;;;;;;4.00;3.67;;;17.70;99.90;;;;;;5055071;28;20206;-86
2023/06/16 00:19:29;;;;;;;3.85;3.53;;;17.70;99.90;;;;;;5054473;28;20286;-85
2023/06/16 00:21:59;;;;;;;3.97;3.53;;;17.70;99.90;;;;;;5040661;28;20211;-85
2023/06/16 00:24:27;;;;;;;4.60;4.10;;;17.60;99.90;;;;;;5034331;28;20226;-82
2023/06/16 00:26:55;;;;;;;5.47;4.25;;;17.60;99.90;;;;;;5015958;28;20222;-85
2023/06/16 00:29:23;;;;;;;7.20;4.40;;;17.60;99.90;;;;;;5033649;28;20244;-84
2023/06/16 00:31:50;;;;;;;5.30;4.80;;;17.50;99.90;;;;;;5033745;28;20260;-83
2023/06/16 00:34:17;;;;;;;4.10;3.70;;;17.50;99.90;;;;;;5033878;28;20218;-83
2023/06/16 00:36:44;;;;;;;5.03;4.53;;;17.50;99.90;;;;;;5033913;28;20535;-83
2023/06/16 00:39:11;;;;;;;5.63;4.43;;;17.40;99.90;;;;;;5034336;28;20202;-81
2023/06/16 00:41:39;;;;;;;5.75;4.60;;;17.40;99.90;;;;;;5033548;28;20207;-83
2023/06/16 00:44:06;;;;;;;8.82;4.68;;;17.40;99.90;;;;;;5033692;28;20198;-84
2023/06/16 00:46:37;;;;;;;6.20;4.75;;;17.40;99.90;;;;;;5033757;28;20305;-83
2023/06/16 00:49:05;;;;;;;5.88;4.28;;;17.40;99.90;;;;;;5033188;28;20191;-84
2023/06/16 00:51:32;;;;;;;5.30;4.80;;;17.40;99.90;;;;;;5033767;28;20218;-84
2023/06/16 00:54:00;;;;;;;4.85;4.13;;;17.30;99.90;;;;;;5035734;28;20227;-84
2023/06/16 00:56:27;;;;;;;5.25;4.05;;;17.30;99.90;;;;;;5053055;28;20269;-83
2023/06/16 00:58:55;;;;;;;5.80;4.38;;;17.30;99.90;;;;;;5038715;28;20262;-84
2023/06/16 01:01:26;;;;;;;6.65;5.18;;;17.30;99.90;;;;;;5033785;28;20220;-84
2023/06/16 01:03:55;;;;;;;6.25;5.30;;;17.20;99.90;;;;;;5033886;28;20244;-83
2023/06/16 01:06:33;;;;;;;6.85;4.53;;;17.20;99.90;;;;;;5033964;28;20408;-83
2023/06/16 01:09:07;;;;;;;6.22;4.65;;;17.20;99.90;;;;;;5033569;28;20209;-84
2023/06/16 01:11:40;;;;;;;5.20;4.70;;;17.20;99.90;;;;;;5033745;28;20187;-81
2023/06/16 01:14:14;;;;;;;5.90;5.32;;;17.20;99.90;;;;;;5034502;28;20288;-82
2023/06/16 01:16:42;;;;;;;7.28;4.57;;;17.20;99.90;;;;;;5033812;28;20191;-83
2023/06/16 01:19:19;;;;;;;7.55;4.50;;;17.10;99.90;;;;;;5033791;28;20637;-82
2023/06/16 01:21:53;;;;;;;9.05;5.03;;;17.10;99.90;;;;;;5033750;28;20206;-82
2023/06/16 01:24:24;;;;;;;5.85;4.38;;;17.10;99.90;;;;;;5033479;28;20584;-83
2023/06/16 01:26:54;;;;;;;6.32;4.82;;;17.10;99.90;;;;;;5033821;28;20248;-82
2023/06/16 01:29:23;;;;;;;5.30;4.50;;;17.00;99.90;;;;;;5033485;28;20315;-81
2023/06/16 01:31:53;;;;;;;4.40;4.00;;;17.00;99.90;;;;;;5042335;28;20223;-83
2023/06/16 01:34:21;;;;;;;6.07;4.15;;;17.00;99.90;;;;;;5053511;28;20574;-83
2023/06/16 01:36:49;;;;;;;4.78;3.58;;;17.00;99.90;;;;;;5052328;28;20305;-83
2023/06/16 01:39:17;;;;;;;3.55;3.25;;;17.00;99.90;;;;;;5035522;28;20215;-82
2023/06/16 01:41:46;;;;;;;3.60;3.30;;;17.00;99.90;;;;;;5033389;28;20206;-83
2023/06/16 01:44:14;;;;;;;4.05;3.65;;;17.00;99.90;;;;;;5032874;28;20233;-83
2023/06/16 01:46:42;;;;;;;5.75;4.55;;;17.00;99.90;;;;;;5033462;28;20230;-83
2023/06/16 01:49:09;;;;;;;5.63;4.55;;;16.90;99.90;;;;;;5034014;28;20187;-82
2023/06/16 01:51:37;;;;;;;3.97;3.60;;;16.90;99.90;;;;;;5033171;28;20199;-83
2023/06/16 01:54:04;;;;;;;5.13;3.88;;;16.90;99.90;;;;;;5032877;28;20226;-84
2023/06/16 01:56:31;;;;;;;4.28;3.88;;;16.90;99.90;;;;;;5032955;28;20707;-83
2023/06/16 01:59:00;;;;;;;5.05;4.32;;;16.90;99.90;;;;;;5032508;28;20539;-82
2023/06/16 02:01:29;;;;;;;4.80;4.40;;;16.80;99.90;;;;;;5033313;28;20253;-84
2023/06/16 02:04:02;;;;;;;4.35;3.92;;;16.80;99.90;;;;;;5032695;28;20307;-83
2023/06/16 02:06:37;;;;;;;6.90;4.72;;;16.80;99.90;;;;;;5044712;28;20201;-85
2023/06/16 02:09:05;;;;;;;4.20;3.80;;;16.70;99.90;;;;;;5053088;28;20224;-83
2023/06/16 02:11:33;;;;;;;4.10;3.70;;;16.70;99.90;;;;;;5052728;28;20202;-82
2023/06/16 02:14:03;;;;;;;4.57;3.58;;;16.60;99.90;;;;;;5052796;28;20252;-83
2023/06/16 02:16:30;;;;;;;4.35;3.95;;;16.60;99.90;;;;;;5053372;28;20281;-84
2023/06/16 02:18:57;;;;;;;8.00;4.90;;;16.60;99.90;;;;;;5052804;28;20756;-83
2023/06/16 02:21:24;;;;;;;4.88;4.35;;;16.60;99.90;;;;;;5046730;28;20215;-84
2023/06/16 02:23:51;;;;;;;7.15;4.90;;;16.50;99.90;;;;;;5031943;28;20768;-82
2023/06/16 02:26:18;;;;;;;5.88;4.80;;;16.50;99.90;;;;;;5031359;28;20871;-83
2023/06/16 02:28:47;;;;;;;4.72;4.20;;;16.50;99.90;;;;;;5031970;28;20607;-84
2023/06/16 02:31:17;;;;;;;5.38;4.88;;;16.40;99.90;;;;;;5032301;28;20607;-83
2023/06/16 02:33:45;;;;;;;5.10;4.70;;;16.40;99.90;;;;;;5032069;28;20195;-82
2023/06/16 02:36:13;;;;;;;6.30;4.00;;;16.40;99.90;;;;;;5032484;28;20195;-83
2023/06/16 02:38:40;;;;;;;6.78;4.57;;;16.30;99.90;;;;;;5033164;28;20233;-84
2023/06/16 02:41:07;;;;;;;5.90;4.30;;;16.30;99.90;;;;;;5032939;28;20205;-81
2023/06/16 02:43:34;;;;;;;4.90;4.43;;;16.30;99.90;;;;;;5036668;28;20285;-82
2023/06/16 02:46:02;;;;;;;6.40;4.57;;;16.30;99.90;;;;;;5036255;28;20206;-83
2023/06/16 02:48:30;;;;;;;6.07;4.72;;;16.20;99.90;;;;;;5036132;28;20225;-82
2023/06/16 02:50:57;;;;;;;4.85;4.35;;;16.20;99.90;;;;;;5045679;28;20214;-82
2023/06/16 02:53:25;;;;;;;5.72;4.35;;;16.20;99.90;;;;;;5056564;28;20774;-83
2023/06/16 02:55:52;;;;;;;5.55;4.78;;;16.20;99.90;;;;;;5056111;28;20202;-84
2023/06/16 02:58:19;;;;;;;5.72;4.40;;;16.10;99.90;;;;;;5041438;28;20218;-83
2023/06/16 03:00:46;;;;;;;4.57;4.13;;;16.10;99.90;;;;;;5036216;28;20210;-80
2023/06/16 03:03:14;;;;;;;5.32;4.65;;;16.10;99.90;;;;;;5036037;28;20203;-81
2023/06/16 03:05:43;;;;;;;4.95;4.35;;;16.00;99.90;;;;;;5035999;28;20339;-82
2023/06/16 03:08:10;;;;;;;5.00;4.57;;;16.00;99.90;;;;;;5036990;28;20254;-82
2023/06/16 03:10:37;;;;;;;4.60;4.20;;;16.00;99.90;;;;;;5036689;28;20246;-83
2023/06/16 03:13:04;;;;;;;5.97;4.70;;;16.00;99.90;;;;;;5035880;28;20583;-84
2023/06/16 03:15:31;;;;;;;5.72;4.85;;;16.00;99.90;;;;;;5035821;28;20213;-82
2023/06/16 03:17:57;;;;;;;6.57;4.43;;;16.00;99.90;;;;;;5036364;28;20191;-83
2023/06/16 03:20:25;;;;;;;5.88;4.40;;;16.00;99.90;;;;;;5055846;28;20193;-83
2023/06/16 03:22:53;;;;;;;4.30;3.90;;;15.90;99.90;;;;;;5055729;28;20198;-83
2023/06/16 03:25:21;;;;;;;4.97;4.57;;;15.90;99.90;;;;;;5055003;28;20202;-81
2023/06/16 03:27:48;;;;;;;4.80;4.20;;;15.90;99.90;;;;;;5035689;28;20246;-83
2023/06/16 03:30:16;;;;;;;4.90;4.38;;;15.80;99.90;;;;;;5035432;28;20227;-82
2023/06/16 03:32:44;;;;;;;5.28;4.82;;;15.80;99.90;;;;;;5035894;28;20628;-82
2023/06/16 03:35:12;;;;;;;5.75;4.25;;;15.80;99.90;;;;;;5035449;28;20306;-82
2023/06/16 03:37:39;;;;;;;5.70;4.82;;;15.80;99.90;;;;;;5035509;28;20646;-83
2023/06/16 03:40:09;;;;;;;6.45;4.40;;;15.80;99.90;;;;;;5035388;28;20229;-83
2023/06/16 03:42:36;;;;;;;6.10;5.32;;;15.80;99.90;;;;;;5034574;28;20207;-82
2023/06/16 03:45:04;;;;;;;5.38;4.80;;;15.80;99.90;;;;;;5034456;28;20211;-83
2023/06/16 03:47:31;;;;;;;4.88;4.38;;;15.80;99.90;;;;;;5035789;28;20310;-83
2023/06/16 03:49:58;;;;;;;5.10;4.45;;;15.70;99.90;;;;;;5035687;28;20199;-83
2023/06/16 03:52:25;;;;;;;7.35;4.90;;;15.70;99.90;;;;;;5034296;28;20233;-81
2023/06/16 03:54:52;;;;;;;7.28;6.03;;;15.70;99.90;;;;;;5034022;28;20202;-83
2023/06/16 03:57:21;;;;;;;5.93;5.35;;;15.70;99.90;;;;;;5034622;28;20222;-83
2023/06/16 03:59:48;;;;;;;5.07;4.50;;;15.70;99.90;;;;;;5035204;28;20209;-82
2023/06/16 04:02:16;;;;;;;4.88;4.47;;;15.70;99.90;;;;;;5035463;28;20289;-82
2023/06/16 04:04:45;;;;;;;6.93;5.18;;;15.70;99.90;;;;;;5034368;28;20241;-81
2023/06/16 04:07:12;;;;;;;5.78;4.53;;;15.70;99.90;;;;;;5034781;28;20260;-82
2023/06/16 04:09:39;;;;;;;6.53;4.85;;;15.80;99.90;;;;;;5035189;28;20546;-84
2023/06/16 04:12:07;;;;;;;5.28;4.78;;;15.80;99.90;;;;;;5035551;28;20201;-82
2023/06/16 04:14:35;;;;;;;5.47;4.97;;;15.80;99.90;;;;;;5035028;28;20198;-83
2023/06/16 04:17:03;;;;;;;5.13;4.65;;;15.90;99.90;;;;;;5035375;28;20209;-84
2023/06/16 04:19:30;;;;;;;4.88;4.30;;;15.90;99.90;;;;;;5035223;28;20199;-83
2023/06/16 04:21:58;;;;;;;5.10;4.60;;;16.00;99.90;;;;;;5035044;28;20197;-82
2023/06/16 04:24:25;;;;;;;6.13;4.95;;;16.10;99.90;;;;;;5034963;28;20198;-82
2023/06/16 04:26:58;;;;;;;5.13;4.20;;;16.10;99.90;;;;;;5041317;28;20233;-82
2023/06/16 04:29:25;;;;;;;7.35;4.18;;;16.30;99.90;;;;;;5044935;28;20237;-82
2023/06/16 04:31:57;;;;;;;4.63;4.22;;;16.30;99.90;;;;;;5035557;28;20203;-83
2023/06/16 04:34:24;;;;;;;5.22;4.63;;;16.30;99.90;;;;;;5034979;28;20256;-83
2023/06/16 04:36:51;;;;;;;4.85;4.40;;;16.40;99.90;;;;;;5034908;28;20557;-83
2023/06/16 04:39:18;;;;;;;5.72;4.30;;;16.50;99.90;;;;;;5034584;28;20264;-82
2023/06/16 04:41:45;;;;;;;7.35;6.00;;;16.50;99.90;;;;;;5034640;28;20314;-82
2023/06/16 04:44:12;;;;;;;10.85;5.63;;;16.50;99.90;;;;;;5034457;28;20212;-82
2023/06/16 04:46:39;;;;;;;5.95;4.93;;;16.60;99.90;;;;;;5035826;28;20210;-82
2023/06/16 04:49:08;;;;;;;5.68;4.70;;;16.60;99.90;;;;;;5054801;28;20260;-83
2023/06/16 04:51:36;;;;;;;5.32;4.50;;;16.60;99.90;;;;;;5054792;28;20198;-82
2023/06/16 04:54:03;;;;;;;5.50;5.00;;;16.70;99.90;;;;;;5053766;28;20276;-83
2023/06/16 04:56:30;;;;;;;6.13;4.95;;;16.80;99.90;;;;;;5053933;28;20292;-82
2023/06/16 04:58:57;;;;;;;7.38;6.05;;;16.80;99.90;;;;;;5054177;28;20591;-83
2023/06/16 05:01:26;;;;;;;7.57;5.95;;;17.00;99.90;;;;;;5040044;28;20204;-82
2023/06/16 05:03:53;;;;;;;10.80;5.68;;;17.20;99.90;;;;;;5033524;28;20222;-83
2023/06/16 05:06:21;;;;;;;6.75;5.50;;;17.40;99.90;;;;;;5033915;28;20207;-82
2023/06/16 05:08:48;;;;;;;5.65;5.15;;;17.70;99.90;;;;;;5034511;28;20317;-83
2023/06/16 05:11:15;;;;;;;7.43;6.28;;;18.00;99.90;;;;;;5034207;28;20203;-82
2023/06/16 05:13:42;;;;;;;7.13;5.60;;;18.40;99.90;;;;;;5033972;28;20285;-82
2023/06/16 05:16:08;;;;;;;7.35;5.25;;;18.70;99.90;;;;;;5048546;28;20201;-82
2023/06/16 05:18:35;;;;;;;9.55;5.85;;;19.10;99.90;;;;;;5053704;28;20202;-82
2023/06/16 05:21:02;;;;;;;5.72;5.13;;;19.50;99.90;;;;;;5037338;28;20285;-82
2023/06/16 05:23:31;;;;;;;6.32;5.70;;;19.80;99.90;;;;;;5033865;28;20285;-83
2023/06/16 05:25:57;;;;;;;5.82;4.88;;;20.10;99.90;;;;;;5033638;28;20586;-83
2023/06/16 05:28:24;;;;;;;5.85;5.25;;;20.50;99.90;;;;;;5033819;28;20242;-83
2023/06/16 05:30:51;;;;;;;6.90;5.80;;;20.80;99.90;;;;;;5052195;28;20610;-83
2023/06/16 05:33:18;;;;;;;5.53;5.03;;;21.20;99.90;;;;;;5054021;28;20251;-83
2023/06/16 05:35:45;;;;;;;8.23;5.55;;;21.40;99.90;;;;;;5048361;28;20230;-85
2023/06/16 05:38:12;;;;;;;6.78;4.90;;;21.60;99.90;;;;;;5034048;28;20209;-83
2023/06/16 05:40:40;;;;;;;6.72;4.63;;;21.80;99.90;;;;;;5033898;28;20556;-85
2023/06/16 05:43:07;;;;;;;6.80;4.70;;;22.10;99.90;;;;;;5033683;28;20281;-85
2023/06/16 05:45:35;;;;;;;4.70;4.28;;;22.40;99.90;;;;;;5033140;28;20230;-83
2023/06/16 05:48:01;;;;;;;5.35;4.32;;;22.70;99.90;;;;;;5033678;28;20308;-83
2023/06/16 05:50:28;;;;;;;11.55;5.15;;;22.90;99.90;;;;;;5032181;28;20885;-84
2023/06/16 05:52:55;;;;;;;7.75;4.57;;;23.10;99.90;;;;;;5033416;28;20296;-84
2023/06/16 05:55:22;;;;;;;6.97;4.57;;;23.30;99.90;;;;;;5033997;28;20230;-86
2023/06/16 05:57:51;;;;;;;4.93;4.43;;;23.50;99.90;;;;;;5032993;28;20199;-84
2023/06/16 06:00:18;;;;;;;6.28;4.47;;;23.70;99.90;;;;;;5036734;28;20276;-84
2023/06/16 06:02:45;;;;;;;4.45;4.05;;;23.90;99.90;;;;;;5045222;28;20224;-85
2023/06/16 06:07:40;;;;;;;4.40;3.60;;;24.30;99.90;;;;;;5032476;28;20226;-85
2023/06/16 06:10:08;;;;;;;5.88;3.88;;;24.60;99.90;;;;;;5033563;28;20530;-82
2023/06/16 06:12:35;;;;;;;5.53;4.32;;;24.70;99.90;;;;;;5033158;28;20216;-85
2023/06/16 06:15:04;;;;;;;5.50;3.80;;;24.70;99.90;;;;;;5033571;28;20203;-84
2023/06/16 06:17:31;;;;;;;7.40;4.25;;;24.90;99.90;;;;;;5036489;28;20622;-84
2023/06/16 06:19:58;;;;;;;5.75;3.20;;;25.00;99.90;;;;;;5037213;28;20194;-84
2023/06/16 06:22:31;;;;;;;4.72;3.50;;;25.20;99.90;;;;;;5020108;28;20294;-85
2023/06/16 06:24:58;;;;;;;6.95;3.33;;;25.40;99.90;;;;;;5017179;28;20196;-85
2023/06/16 06:27:25;;;;;;;4.38;3.55;;;25.60;99.90;;;;;;5018043;28;20199;-84
2023/06/16 06:29:52;;;;;;;4.95;3.30;;;25.80;99.90;;;;;;5014553;28;20211;-84
2023/06/16 06:32:21;;;;;;;6.13;3.42;;;26.00;99.90;;;;;;5027120;28;20238;-83
2023/06/16 06:34:47;;;;;;;7.95;3.83;;;26.00;99.90;;;;;;5036795;28;20210;-84
2023/06/16 06:37:18;;;;;;;4.50;3.38;;;26.10;99.90;;;;;;5023570;28;20622;-85
2023/06/16 06:39:45;;;;;;;5.88;3.15;;;26.30;99.90;;;;;;5032469;28;20534;-86
2023/06/16 06:42:13;;;;;;;6.22;3.00;;;26.50;99.90;;;;;;5031775;28;20221;-85
2023/06/16 06:44:45;;;;;;;3.67;2.67;;;26.60;99.90;;;;;;5028522;28;20268;-82
2023/06/16 06:47:12;;;;;;;3.58;2.45;;;26.70;99.90;;;;;;5035238;28;20195;-85
2023/06/16 06:49:42;;;;;;;5.15;3.50;;;26.90;99.90;;;;;;5027440;28;20225;-83
2023/06/16 06:52:09;;;;;;;3.13;2.83;;;27.00;99.90;;;;;;5016803;28;20191;-85
2023/06/16 06:54:36;;;;;;;5.05;2.85;;;26.90;99.90;;;;;;5016285;28;20223;-86
2023/06/16 06:57:03;;;;;;;4.57;2.83;;;27.10;99.90;;;;;;5016673;28;20286;-86
2023/06/16 06:59:30;;;;;;;4.55;3.08;;;27.40;99.90;;;;;;5015931;28;20203;-85
2023/06/16 07:01:57;;;;;;;6.50;2.70;;;27.70;99.90;;;;;;5015520;28;20203;-86
2023/06/16 07:04:24;;;;;;;4.03;2.53;;;27.90;99.90;;;;;;5023864;28;20234;-83
2023/06/16 07:06:53;;;;;;;3.10;2.50;;;28.30;99.90;;;;;;5035663;28;20234;-89
2023/06/16 07:09:20;;;;;;;3.85;2.58;;;28.70;99.90;;;;;;5035936;28;20231;-85
2023/06/16 07:11:47;;;;;;;4.43;2.80;;;28.90;99.90;;;;;;5023106;28;20210;-86
2023/06/16 07:14:14;;;;;;;5.68;2.83;;;29.00;99.90;;;;;;5016350;28;20215;-86
2023/06/16 07:16:41;;;;;;;3.00;2.72;;;28.90;99.90;;;;;;5015804;28;20261;-85
2023/06/16 07:19:08;;;;;;;3.67;2.50;;;28.90;99.90;;;;;;5017065;28;20206;-83
2023/06/16 07:21:38;;;;;;;4.80;2.35;;;29.20;99.90;;;;;;5018264;28;20285;-84
2023/06/16 07:24:07;;;;;;;3.03;2.72;;;29.30;99.90;;;;;;5036754;28;20190;-87
2023/06/16 07:26:35;;;;;;;4.75;3.13;;;29.50;99.90;;;;;;5036307;28;20501;-89
2023/06/16 07:29:01;;;;;;;4.63;2.80;;;29.70;99.90;;;;;;5035626;28;20215;-84
2023/06/16 07:31:28;;;;;;;3.60;2.53;;;29.90;99.90;;;;;;5035481;28;20722;-85
2023/06/16 07:33:56;;;;;;;12.23;3.42;;;29.90;99.90;;;;;;5035727;28;20199;-84
2023/06/16 07:36:23;;;;;;;2.90;2.70;;;29.80;99.90;;;;;;5035540;28;20198;-84
2023/06/16 07:38:50;;;;;;;8.18;2.55;;;29.80;99.90;;;;;;5035269;28;20205;-83
2023/06/16 07:41:18;;;;;;;4.10;2.70;;;29.60;99.90;;;;;;5022631;28;20214;-85
2023/06/16 07:43:47;;;;;;;3.92;2.50;;;29.50;99.90;;;;;;5015412;28;20199;-83
2023/06/16 07:46:14;;;;;;;3.08;2.70;;;29.50;99.90;;;;;;5015556;28;20261;-84
2023/06/16 07:48:40;;;;;;;3.35;2.92;;;29.70;99.90;;;;;;5015939;28;20223;-84
2023/06/16 07:51:08;;;;;;;3.15;2.85;;;29.80;99.90;;;;;;5016256;28;20219;-87
2023/06/16 07:53:35;;;;;;;3.05;2.40;;;29.80;99.90;;;;;;5015453;28;20317;-83
2023/06/16 07:56:03;;;;;;;3.50;2.63;;;29.80;99.90;;;;;;5015333;28;20195;-84
2023/06/16 07:58:31;;;;;;;3.30;2.65;;;29.70;99.90;;;;;;5014283;28;20209;-85
2023/06/16 08:00:58;;;;;;;2.40;2.20;;;29.70;99.90;;;;;;5015127;28;20207;-85
2023/06/16 08:03:25;;;;;;;5.80;2.13;;;29.90;99.90;;;;;;5015368;28;20510;-85
2023/06/16 08:05:54;;;;;;;3.97;2.20;;;30.00;99.90;;;;;;5015197;28;20269;-84
2023/06/16 08:08:22;;;;;;;2.63;2.42;;;30.00;99.90;;;;;;5015270;28;20199;-85
2023/06/16 08:10:49;;;;;;;7.13;2.60;;;30.20;99.90;;;;;;5015280;28;20206;-84
2023/06/16 08:13:16;;;;;;;2.42;2.00;;;30.30;99.90;;;;;;5015337;28;20226;-82
2023/06/16 08:15:44;;;;;;;2.75;2.40;;;30.50;99.90;;;;;;5014978;28;20195;-84
2023/06/16 08:18:11;;;;;;;3.38;2.13;;;30.80;99.90;;;;;;5014833;28;20199;-81
2023/06/16 08:20:38;;;;;;;3.05;2.40;;;31.10;99.90;;;;;;5025369;28;20202;-83
2023/06/16 08:23:05;;;;;;;4.90;2.58;;;31.30;97.80;;;;;;5036153;28;20225;-86
2023/06/16 08:25:31;;;;;;;4.07;2.53;;;31.50;97.60;;;;;;5032953;28;20252;-81
2023/06/16 08:28:00;;;;;;;3.80;2.70;;;31.40;94.70;;;;;;5033817;28;20195;-83
2023/06/16 08:30:26;;;;;;;3.05;2.70;;;31.20;95.20;;;;;;5034126;28;20272;-84
2023/06/16 08:32:55;;;;;;;4.95;2.70;;;31.20;96.10;;;;;;5033425;28;20213;-82
2023/06/16 08:35:22;;;;;;;2.90;2.60;;;31.00;95.60;;;;;;5015444;28;20273;-85
2023/06/16 08:37:49;;;;;;;3.53;2.53;;;31.10;95.40;;;;;;5033999;28;20198;-85
2023/06/16 08:40:16;;;;;;;7.78;2.80;;;31.30;94.50;;;;;;5023588;28;20311;-86
2023/06/16 08:42:44;;;;;;;4.10;2.40;;;31.50;94.50;;;;;;5014747;28;20360;-83
2023/06/16 08:45:12;;;;;;;5.20;2.72;;;31.70;95.70;;;;;;5030372;28;20229;-85
2023/06/16 08:47:39;;;;;;;4.38;2.72;;;31.70;93.90;;;;;;5019233;28;20282;-83
2023/06/16 08:50:08;;;;;;;4.10;2.65;;;31.50;94.90;;;;;;5029005;28;20641;-83
2023/06/16 08:52:38;;;;;;;4.20;3.00;;;31.40;95.00;;;;;;5033195;28;20293;-87
2023/06/16 08:55:09;;;;;;;3.15;2.60;;;31.40;96.90;;;;;;5033807;28;20206;-85
2023/06/16 08:57:39;;;;;;;3.40;2.80;;;31.50;98.20;;;;;;5033834;28;20560;-86
2023/06/16 09:00:09;;;;;;;2.33;2.13;;;31.50;97.80;;;;;;5034038;28;20558;-88
2023/06/16 09:02:36;;;;;;;5.68;2.72;;;31.70;96.50;;;;;;5033949;28;20230;-86
2023/06/16 09:05:04;;;;;;;3.33;2.42;;;31.80;96.10;;;;;;5033470;28;20228;-84
2023/06/16 09:07:32;;;;;;;2.97;2.60;;;31.70;95.00;;;;;;5018062;28;20238;-85
2023/06/16 09:09:59;;;;;;;5.35;2.65;;;31.80;94.00;;;;;;5014589;28;20222;-90
2023/06/16 09:12:27;;;;;;;3.72;2.50;;;32.00;92.30;;;;;;5014677;28;20204;-87
2023/06/16 09:14:54;;;;;;;3.85;2.28;;;32.10;92.00;;;;;;5025102;28;20289;-85
2023/06/16 09:17:24;;;;;;;3.35;2.50;;;32.10;91.30;;;;;;5033131;28;20210;-83
2023/06/16 09:19:53;;;;;;;3.10;2.70;;;32.10;88.20;;;;;;5033251;28;20523;-84
2023/06/16 09:22:25;;;;;;;3.42;2.70;;;32.00;88.40;;;;;;5021912;28;20214;-86
2023/06/16 09:24:58;;;;;;;6.03;2.30;;;31.90;88.60;;;;;;5014017;28;20202;-81
2023/06/16 09:27:29;;;;;;;2.22;2.13;;;31.80;85.00;;;;;;5014204;28;20199;-85
2023/06/16 09:29:59;;;;;;;3.17;2.70;;;31.90;85.00;;;;;;5013569;28;20215;-91
2023/06/16 09:32:26;;;;;;;3.75;2.22;;;32.00;74.50;;;;;;5024136;28;20203;-85
2023/06/16 09:34:53;;;;;;;4.55;2.63;;;31.90;76.20;;;;;;5033660;28;20198;-83
2023/06/16 09:37:20;;;;;;;2.75;2.55;;;31.80;77.30;;;;;;5033025;28;20244;-89
2023/06/16 09:39:47;;;;;;;3.85;2.45;;;31.70;75.90;;;;;;5032143;28;20209;-88
2023/06/16 09:42:18;;;;;;;3.75;2.67;;;31.90;78.40;;;;;;5033646;28;20249;-90
2023/06/16 09:44:45;;;;;;;2.58;2.38;;;31.90;79.70;;;;;;5034332;28;20198;-87
2023/06/16 09:47:14;;;;;;;3.17;2.80;;;31.70;83.00;;;;;;5033456;28;20205;-86
2023/06/16 09:49:41;;;;;;;3.40;3.03;;;31.80;85.40;;;;;;5030976;28;20223;-86
2023/06/16 09:52:09;;;;;;;3.35;2.55;;;31.70;88.30;;;;;;5035145;28;20198;-87
2023/06/16 09:54:36;;;;;;;3.08;2.50;;;31.80;88.10;;;;;;5037505;28;20248;-82
2023/06/16 09:57:04;;;;;;;3.08;2.65;;;31.90;86.90;;;;;;5034791;28;20570;-88
2023/06/16 09:59:33;;;;;;;2.72;2.53;;;31.70;82.90;;;;;;5035564;28;20272;-86
2023/06/16 10:02:01;;;;;;;4.55;2.90;;;31.60;85.50;;;;;;5037670;28;20203;-83
2023/06/16 10:04:31;;;;;;;2.92;2.38;;;31.70;84.80;;;;;;5033787;28;20230;-84
2023/06/16 10:07:01;;;;;;;4.85;2.70;;;31.50;87.20;;;;;;5034716;28;20262;-86
2023/06/16 10:09:34;;;;;;;2.92;2.63;;;31.30;84.30;;;;;;5037183;28;20222;-89
2023/06/16 10:12:01;;;;;;;3.30;2.47;;;31.00;83.30;;;;;;5036650;28;20195;-85
2023/06/16 10:14:32;;;;;;;2.80;2.60;;;31.00;82.50;;;;;;5036770;28;20264;-86
2023/06/16 10:17:01;;;;;;;3.95;2.42;;;30.90;83.50;;;;;;5037005;28;20285;-87
2023/06/16 10:19:33;;;;;;;3.97;2.30;;;30.90;84.90;;;;;;5022562;28;20215;-88
2023/06/16 10:22:01;;;;;;;3.00;2.45;;;30.70;84.80;;;;;;5017447;28;20650;-91
2023/06/16 10:24:28;;;;;;;4.18;2.65;;;30.80;85.50;;;;;;5016894;28;20691;-86
2023/06/16 10:26:56;;;;;;;4.03;2.53;;;30.70;84.10;;;;;;5025418;28;20218;-89
2023/06/16 10:29:25;;;;;;;2.45;2.25;;;30.70;86.70;;;;;;5037381;28;20314;-86
2023/06/16 10:32:06;;;;;;;4.18;2.10;;;30.90;88.10;;;;;;5036531;28;20488;-88
2023/06/16 10:34:36;;;;;;;3.63;2.70;;;31.10;87.90;;;;;;5035290;28;20198;-85
2023/06/16 10:37:03;;;;;;;2.53;2.33;;;31.00;82.90;;;;;;5016997;28;20199;-87
2023/06/16 10:39:34;;;;;;;4.90;2.40;;;31.00;83.30;;;;;;5017222;28;20235;-85
2023/06/16 10:42:01;;;;;;;2.75;2.35;;;31.20;83.40;;;;;;5033223;28;20277;-86
2023/06/16 10:44:29;;;;;;;3.33;2.63;;;31.30;80.30;;;;;;5037024;28;20288;-87
2023/06/16 10:47:36;;;;;;;4.13;2.53;;;31.20;79.10;;;;;;5034617;28;20206;-90
2023/06/16 10:50:05;;;;;;;4.95;2.10;;;31.10;78.60;;;;;;5027728;28;20306;-86
2023/06/16 10:52:35;;;;;;;3.80;2.40;;;31.20;79.60;;;;;;5035793;28;20199;-88
2023/06/16 10:55:29;;;;;;;5.72;2.60;;;31.40;77.30;;;;;;5036184;28;20583;-83
2023/06/16 10:58:21;;;;;;;4.07;2.35;;;31.30;73.60;;;;;;5036269;28;20247;-86
2023/06/16 11:01:23;;;;;;;3.70;2.40;;;31.40;76.10;;;;;;5032055;28;20595;-83
2023/06/16 11:04:00;;;;;;;2.60;2.40;;;31.40;74.90;;;;;;5015690;28;20295;-88
2023/06/16 11:06:49;;;;;;;3.88;2.08;;;31.20;77.00;;;;;;5014678;28;20730;-86
2023/06/16 11:09:16;;;;;;;3.03;2.47;;;31.40;76.10;;;;;;5017974;28;20203;-86
2023/06/16 11:11:43;;;;;;;3.35;2.38;;;31.30;78.30;;;;;;5036096;28;20218;-82
2023/06/16 11:14:11;;;;;;;2.80;2.10;;;31.20;79.70;;;;;;5035384;28;20290;-88
2023/06/16 11:16:38;;;;;;;2.50;2.30;;;31.00;80.30;;;;;;5035684;28;20216;-90
2023/06/16 11:19:05;;;;;;;3.00;2.70;;;30.80;79.50;;;;;;5036631;28;20283;-88
2023/06/16 11:21:33;;;;;;;3.17;2.75;;;31.00;83.20;;;;;;5019534;28;20223;-83
2023/06/16 11:24:10;;;;;;;4.20;2.45;;;30.70;81.60;;;;;;5017436;28;20225;-87
2023/06/16 11:26:37;;;;;;;2.88;2.63;;;30.60;82.60;;;;;;5036131;28;20206;-88
2023/06/16 11:29:06;;;;;;;2.70;2.47;;;30.70;82.70;;;;;;5035096;28;20206;-86
2023/06/16 11:31:36;;;;;;;3.40;2.83;;;30.70;82.40;;;;;;5035790;28;20250;-83
2023/06/16 11:34:03;;;;;;;2.97;2.53;;;30.70;83.70;;;;;;5030248;28;20203;-86
2023/06/16 11:36:32;;;;;;;3.95;2.63;;;30.70;82.20;;;;;;5026749;28;20206;-87
2023/06/16 11:39:04;;;;;;;4.15;2.58;;;30.50;84.20;;;;;;5036437;28;20202;-84
2023/06/16 11:41:31;;;;;;;2.70;2.30;;;30.40;82.40;;;;;;5035198;28;20198;-85
2023/06/16 11:43:58;;;;;;;4.05;2.38;;;30.40;85.00;;;;;;5028336;28;20466;-87
2023/06/16 11:46:27;;;;;;;2.50;2.30;;;30.30;85.00;;;;;;5035662;28;20191;-89
2023/06/16 11:48:55;;;;;;;3.25;2.50;;;30.40;84.80;;;;;;5034410;28;20198;-86
2023/06/16 11:51:23;;;;;;;3.42;2.20;;;30.50;84.80;;;;;;5035261;28;20219;-86
2023/06/16 11:53:50;;;;;;;5.07;2.88;;;30.50;79.70;;;;;;5019296;28;20208;-86
2023/06/16 11:56:19;;;;;;;3.55;2.28;;;30.30;79.10;;;;;;5015645;28;20252;-80
2023/06/16 11:58:48;;;;;;;2.72;2.40;;;30.20;81.30;;;;;;5015950;28;20242;-90
2023/06/16 12:01:16;;;;;;;3.67;2.72;;;30.20;84.00;;;;;;5015820;28;20202;-85
2023/06/16 12:03:44;;;;;;;2.15;2.00;;;30.30;84.30;;;;;;5032409;28;20285;-90
2023/06/16 12:06:12;;;;;;;2.88;2.58;;;30.30;81.50;;;;;;5032928;28;20334;-84
2023/06/16 12:08:42;;;;;;;3.50;2.50;;;30.40;80.30;;;;;;5015579;28;20199;-85
2023/06/16 12:11:10;;;;;;;3.83;2.65;;;30.30;79.00;;;;;;5014034;28;20254;-88
2023/06/16 12:13:39;;;;;;;4.68;2.63;;;30.00;81.00;;;;;;5014607;28;20206;-89
2023/06/16 12:16:08;;;;;;;3.20;2.33;;;29.90;80.10;;;;;;5014956;28;20624;-85
2023/06/16 12:18:35;;;;;;;4.13;2.50;;;30.10;81.30;;;;;;5015002;28;20195;-89
2023/06/16 12:21:17;;;;;;;2.30;2.10;;;29.90;79.70;;;;;;5015301;28;20290;-82
2023/06/16 12:23:49;;;;;;;4.32;2.42;;;29.90;78.60;;;;;;5014803;28;20508;-89
2023/06/16 12:26:30;;;;;;;2.47;2.03;;;29.90;77.90;;;;;;5014531;28;20591;-86
2023/06/16 12:29:00;;;;;;;2.63;2.03;;;29.70;79.00;;;;;;5032814;28;20233;-88
2023/06/16 12:31:28;;;;;;;4.07;2.00;;;29.60;78.60;;;;;;5034097;28;20234;-87
2023/06/16 12:33:55;;;;;;;2.42;1.80;;;29.60;78.00;;;;;;5034153;28;20198;-88
2023/06/16 12:36:23;;;;;;;3.50;2.47;;;29.60;75.00;;;;;;5020521;28;20207;-88
2023/06/16 12:38:50;;;;;;;2.75;2.00;;;29.50;75.40;;;;;;5014211;28;20207;-84
2023/06/16 12:41:17;;;;;;;3.20;2.22;;;29.40;79.40;;;;;;5014710;28;20286;-87
2023/06/16 12:43:48;;;;;;;2.72;2.20;;;29.40;76.60;;;;;;5014319;28;20199;-88
2023/06/16 12:46:17;;;;;;;5.22;2.10;;;29.30;76.60;;;;;;5028842;28;20256;-87
2023/06/16 12:48:45;;;;;;;2.90;1.80;;;29.30;77.70;;;;;;5032501;28;20210;-85
2023/06/16 12:51:12;;;;;;;3.72;2.17;;;29.30;79.10;;;;;;5033107;28;20221;-83
2023/06/16 12:53:41;;;;;;;3.42;2.20;;;29.30;76.20;;;;;;5032831;28;20638;-82
2023/06/16 12:56:09;;;;;;;3.78;2.10;;;29.40;74.50;;;;;;5033401;28;20213;-86